createdAt,value
2018-09-29T00:01:44.054Z,13.00
2018-09-29T00:04:12.454Z,13.00
2018-09-29T00:06:40.825Z,13.00
2018-09-29T00:09:11.035Z,12.90
2018-09-29T00:11:39.606Z,12.70
2018-09-29T00:14:08.737Z,12.70
2018-09-29T00:16:38.078Z,12.70
2018-09-29T00:19:06.511Z,12.60
2018-09-29T00:21:35.359Z,12.60
2018-09-29T00:24:03.631Z,12.60
2018-09-29T00:26:32.041Z,12.60
2018-09-29T00:29:00.302Z,12.70
2018-09-29T00:31:28.874Z,12.60
2018-09-29T00:33:57.274Z,12.60
2018-09-29T00:36:25.652Z,12.60
2018-09-29T00:38:54.026Z,12.50
2018-09-29T00:41:22.285Z,12.50
2018-09-29T00:43:50.715Z,12.40
2018-09-29T00:46:19.156Z,12.30
2018-09-29T00:48:47.570Z,12.30
2018-09-29T00:51:16.020Z,12.20
2018-09-29T00:53:44.598Z,12.20
2018-09-29T00:56:12.978Z,12.20
2018-09-29T00:58:41.278Z,12.10
2018-09-29T01:01:09.600Z,12.10
2018-09-29T01:03:38.007Z,12.00
2018-09-29T01:06:06.382Z,12.00
2018-09-29T01:08:34.668Z,12.00
2018-09-29T01:11:03.288Z,12.00
2018-09-29T01:13:31.804Z,11.90
2018-09-29T01:16:00.141Z,11.90
2018-09-29T01:18:28.713Z,11.90
2018-09-29T01:20:57.464Z,11.80
2018-09-29T01:23:25.905Z,11.90
2018-09-29T01:25:54.315Z,11.90
2018-09-29T01:28:22.666Z,12.00
2018-09-29T01:30:51.001Z,12.00
2018-09-29T01:33:19.299Z,12.10
2018-09-29T01:35:47.596Z,12.20
2018-09-29T01:38:16.004Z,12.10
2018-09-29T01:40:44.425Z,12.10
2018-09-29T01:43:12.916Z,12.10
2018-09-29T01:45:41.260Z,12.10
2018-09-29T01:48:09.758Z,12.10
2018-09-29T01:50:38.158Z,12.10
2018-09-29T01:53:06.461Z,12.00
2018-09-29T01:55:35.144Z,12.00
2018-09-29T01:58:03.575Z,11.90
2018-09-29T02:00:31.902Z,11.90
2018-09-29T02:03:05.583Z,11.90
2018-09-29T02:05:34.017Z,12.00
2018-09-29T02:08:02.539Z,11.80
2018-09-29T02:10:30.904Z,11.70
2018-09-29T02:12:59.310Z,11.60
2018-09-29T02:15:27.679Z,11.60
2018-09-29T02:17:56.031Z,11.70
2018-09-29T02:20:24.991Z,11.80
2018-09-29T02:22:53.521Z,11.80
2018-09-29T02:25:21.917Z,11.90
2018-09-29T02:27:50.310Z,11.90
2018-09-29T02:30:18.786Z,12.00
2018-09-29T02:32:47.605Z,12.00
2018-09-29T02:35:16.067Z,11.90
2018-09-29T02:37:44.534Z,11.90
2018-09-29T02:40:12.940Z,11.80
2018-09-29T02:42:41.345Z,11.70
2018-09-29T02:45:09.998Z,11.70
2018-09-29T02:47:38.379Z,11.70
2018-09-29T02:50:07.048Z,11.70
2018-09-29T02:52:36.022Z,11.80
2018-09-29T02:55:04.470Z,11.70
2018-09-29T02:57:32.822Z,11.80
2018-09-29T03:00:01.087Z,11.80
2018-09-29T03:02:29.365Z,11.90
2018-09-29T03:04:57.784Z,11.80
2018-09-29T03:07:26.151Z,11.60
2018-09-29T03:09:54.425Z,11.50
2018-09-29T03:12:22.750Z,11.50
2018-09-29T03:14:50.961Z,11.60
2018-09-29T03:17:19.222Z,11.70
2018-09-29T03:19:47.547Z,11.70
2018-09-29T03:22:15.813Z,11.70
2018-09-29T03:24:44.174Z,11.70
2018-09-29T03:27:12.569Z,11.70
2018-09-29T03:29:41.052Z,11.70
2018-09-29T03:32:09.373Z,11.70
2018-09-29T03:34:37.632Z,11.70
2018-09-29T03:37:06.103Z,11.60
2018-09-29T03:39:34.354Z,11.40
2018-09-29T03:42:02.817Z,11.40
2018-09-29T03:44:31.323Z,11.30
2018-09-29T03:46:59.591Z,11.30
2018-09-29T03:49:28.334Z,11.30
2018-09-29T03:51:57.308Z,11.30
2018-09-29T03:54:26.403Z,11.30
2018-09-29T03:56:54.662Z,11.30
2018-09-29T03:59:22.975Z,11.30
2018-09-29T04:01:57.698Z,11.30
2018-09-29T04:04:26.056Z,11.30
2018-09-29T04:06:54.376Z,11.20
2018-09-29T04:09:22.690Z,11.20
2018-09-29T04:11:51.068Z,11.30
2018-09-29T04:14:19.487Z,11.30
2018-09-29T04:16:47.779Z,11.30
2018-09-29T04:19:17.902Z,11.20
2018-09-29T04:21:48.105Z,11.20
2018-09-29T04:24:17.516Z,11.20
2018-09-29T04:26:46.093Z,11.30
2018-09-29T04:29:15.728Z,11.30
2018-09-29T04:31:44.059Z,11.20
2018-09-29T04:34:13.111Z,11.10
2018-09-29T04:36:41.877Z,11.00
2018-09-29T04:39:12.036Z,11.10
2018-09-29T04:41:40.483Z,11.10
2018-09-29T04:44:09.765Z,11.20
2018-09-29T04:46:38.155Z,11.20
2018-09-29T04:49:06.607Z,11.10
2018-09-29T04:51:35.059Z,11.10
2018-09-29T04:54:03.465Z,11.20
2018-09-29T04:56:32.197Z,11.30
2018-09-29T04:59:00.633Z,11.40
2018-09-29T05:01:28.991Z,11.40
2018-09-29T05:03:57.545Z,11.40
2018-09-29T05:06:26.373Z,11.40
2018-09-29T05:08:55.007Z,11.50
2018-09-29T05:11:23.484Z,11.50
2018-09-29T05:13:51.973Z,11.40
2018-09-29T05:16:20.412Z,11.40
2018-09-29T05:18:48.949Z,11.40
2018-09-29T05:21:18.639Z,11.30
2018-09-29T05:23:46.983Z,11.20
2018-09-29T05:26:17.378Z,11.10
2018-09-29T05:28:45.835Z,11.10
2018-09-29T05:31:14.258Z,11.00
2018-09-29T05:33:42.494Z,11.00
2018-09-29T05:36:10.764Z,11.00
2018-09-29T05:38:39.279Z,11.00
2018-09-29T05:41:07.726Z,11.00
2018-09-29T05:43:36.071Z,11.00
2018-09-29T05:46:04.501Z,11.00
2018-09-29T05:48:34.012Z,11.00
2018-09-29T05:51:02.363Z,11.00
2018-09-29T05:53:30.814Z,10.90
2018-09-29T05:55:59.357Z,11.00
2018-09-29T05:58:27.980Z,11.00
2018-09-29T06:00:59.893Z,11.00
2018-09-29T06:03:28.160Z,11.10
2018-09-29T06:05:56.556Z,11.20
2018-09-29T06:08:24.813Z,11.20
2018-09-29T06:10:54.171Z,11.30
2018-09-29T06:13:23.301Z,11.20
2018-09-29T06:15:52.469Z,11.10
2018-09-29T06:18:20.912Z,11.10
2018-09-29T06:20:49.560Z,11.20
2018-09-29T06:23:18.107Z,11.10
2018-09-29T06:25:46.467Z,11.20
2018-09-29T06:28:14.764Z,11.20
2018-09-29T06:30:43.240Z,11.20
2018-09-29T06:33:11.788Z,11.30
2018-09-29T06:35:40.404Z,11.40
2018-09-29T06:38:08.774Z,11.40
2018-09-29T06:40:37.813Z,11.40
2018-09-29T06:43:06.670Z,11.50
2018-09-29T06:45:35.127Z,11.50
2018-09-29T06:48:03.478Z,11.60
2018-09-29T06:50:32.117Z,11.50
2018-09-29T06:53:00.553Z,11.50
2018-09-29T06:55:29.234Z,11.50
2018-09-29T06:58:01.745Z,11.60
2018-09-29T07:00:30.788Z,11.70
2018-09-29T07:02:59.750Z,11.70
2018-09-29T07:05:28.273Z,11.70
2018-09-29T07:07:56.797Z,11.70
2018-09-29T07:10:27.448Z,11.80
2018-09-29T07:12:55.936Z,11.90
2018-09-29T07:15:24.318Z,11.90
2018-09-29T07:17:53.096Z,12.00
2018-09-29T07:20:22.449Z,12.00
2018-09-29T07:22:50.925Z,12.00
2018-09-29T07:25:20.863Z,12.10
2018-09-29T07:27:50.343Z,12.10
2018-09-29T07:30:19.773Z,12.10
2018-09-29T07:32:50.092Z,12.10
2018-09-29T07:35:18.775Z,12.20
2018-09-29T07:37:47.232Z,12.20
2018-09-29T07:40:15.867Z,12.30
2018-09-29T07:42:44.471Z,12.30
2018-09-29T07:45:13.704Z,12.20
2018-09-29T07:47:43.426Z,12.20
2018-09-29T07:50:12.264Z,12.30
2018-09-29T07:52:40.908Z,12.40
2018-09-29T07:55:09.275Z,12.50
2018-09-29T07:57:37.808Z,12.50
2018-09-29T08:00:06.331Z,12.50
2018-09-29T08:02:35.157Z,12.60
2018-09-29T08:05:03.836Z,12.70
2018-09-29T08:07:32.398Z,12.70
2018-09-29T08:10:01.116Z,12.80
2018-09-29T08:12:29.512Z,12.80
2018-09-29T08:14:57.948Z,12.90
2018-09-29T08:17:26.391Z,12.90
2018-09-29T08:19:54.773Z,13.00
2018-09-29T08:22:23.332Z,13.00
2018-09-29T08:24:51.700Z,13.00
2018-09-29T08:27:20.077Z,13.10
2018-09-29T08:29:48.686Z,13.10
2018-09-29T08:32:17.571Z,13.20
2018-09-29T08:34:46.215Z,13.10
2018-09-29T08:37:15.283Z,13.10
2018-09-29T08:39:43.588Z,13.20
2018-09-29T08:42:11.956Z,13.10
2018-09-29T08:44:40.554Z,13.00
2018-09-29T08:47:08.840Z,13.10
2018-09-29T08:49:37.543Z,13.20
2018-09-29T08:52:06.014Z,13.30
2018-09-29T08:54:34.782Z,13.40
2018-09-29T08:57:03.334Z,13.40
2018-09-29T08:59:31.919Z,13.40
2018-09-29T09:02:00.957Z,13.50
2018-09-29T09:04:29.722Z,13.50
2018-09-29T09:06:58.792Z,13.50
2018-09-29T09:09:27.345Z,13.70
2018-09-29T09:11:55.964Z,13.70
2018-09-29T09:14:24.263Z,13.70
2018-09-29T09:16:53.167Z,13.60
2018-09-29T09:19:21.614Z,13.60
2018-09-29T09:21:49.961Z,13.50
2018-09-29T09:24:18.542Z,13.60
2018-09-29T09:26:46.749Z,13.60
2018-09-29T09:29:18.588Z,13.60
2018-09-29T09:31:47.226Z,13.60
2018-09-29T09:34:15.720Z,13.70
2018-09-29T09:36:44.105Z,13.70
2018-09-29T09:39:13.060Z,13.80
2018-09-29T09:41:41.397Z,13.80
2018-09-29T09:44:09.698Z,13.90
2018-09-29T09:46:38.020Z,13.90
2018-09-29T09:49:07.323Z,14.00
2018-09-29T09:51:36.163Z,14.00
2018-09-29T09:54:04.648Z,14.00
2018-09-29T09:56:33.172Z,14.10
2018-09-29T09:59:01.787Z,14.20
2018-09-29T10:01:39.231Z,14.20
2018-09-29T10:04:08.202Z,14.20
2018-09-29T10:06:37.072Z,14.10
2018-09-29T10:09:09.095Z,14.20
2018-09-29T10:11:37.774Z,14.30
2018-09-29T10:14:06.338Z,14.30
2018-09-29T10:16:35.143Z,14.30
2018-09-29T10:19:04.157Z,14.40
2018-09-29T10:21:32.535Z,14.40
2018-09-29T10:24:01.123Z,14.50
2018-09-29T10:26:29.647Z,14.50
2018-09-29T10:29:04.689Z,14.60
2018-09-29T10:31:33.002Z,14.60
2018-09-29T10:34:01.677Z,14.60
2018-09-29T10:36:30.314Z,14.60
2018-09-29T10:38:58.846Z,14.70
2018-09-29T10:41:40.262Z,14.70
2018-09-29T10:44:09.019Z,14.70
2018-09-29T10:46:45.241Z,14.60
2018-09-29T10:49:13.777Z,14.50
2018-09-29T10:51:43.044Z,14.60
2018-09-29T10:54:11.687Z,14.80
2018-09-29T10:56:40.054Z,14.80
2018-09-29T10:59:08.828Z,14.90
2018-09-29T11:01:37.382Z,14.90
2018-09-29T11:04:06.980Z,15.10
2018-09-29T11:06:37.069Z,15.20
2018-09-29T11:09:07.973Z,15.20
2018-09-29T11:11:36.427Z,15.20
2018-09-29T11:14:05.839Z,15.30
2018-09-29T11:16:34.336Z,15.20
2018-09-29T11:19:02.830Z,15.10
2018-09-29T11:21:31.350Z,15.00
2018-09-29T11:23:59.853Z,15.00
2018-09-29T11:26:28.276Z,15.00
2018-09-29T11:28:56.574Z,15.00
2018-09-29T11:31:24.998Z,14.80
2018-09-29T11:33:53.433Z,14.80
2018-09-29T11:36:21.983Z,14.80
2018-09-29T11:38:50.348Z,14.90
2018-09-29T11:41:19.093Z,14.90
2018-09-29T11:43:47.846Z,15.00
2018-09-29T11:46:16.198Z,15.00
2018-09-29T11:48:44.813Z,14.90
2018-09-29T11:51:13.056Z,14.90
2018-09-29T11:53:41.390Z,14.90
2018-09-29T11:56:09.978Z,14.90
2018-09-29T11:58:38.326Z,14.90
2018-09-29T12:01:06.934Z,14.80
2018-09-29T12:03:35.323Z,14.80
2018-09-29T12:06:03.924Z,14.80
2018-09-29T12:08:32.228Z,14.80
2018-09-29T12:11:00.838Z,14.80
2018-09-29T12:13:29.217Z,14.70
2018-09-29T12:15:58.496Z,14.80
2018-09-29T12:18:27.107Z,14.80
2018-09-29T12:20:55.487Z,14.70
2018-09-29T12:23:24.089Z,14.80
2018-09-29T12:25:52.587Z,14.80
2018-09-29T12:28:21.415Z,14.80
2018-09-29T12:30:49.880Z,14.80
2018-09-29T12:33:18.497Z,14.80
2018-09-29T12:35:46.921Z,14.90
2018-09-29T12:38:15.422Z,15.00
2018-09-29T12:40:43.954Z,15.10
2018-09-29T12:43:12.347Z,15.20
2018-09-29T12:45:41.053Z,15.40
2018-09-29T12:48:09.598Z,15.40
2018-09-29T12:50:38.076Z,15.40
2018-09-29T12:53:06.665Z,15.40
2018-09-29T12:55:34.880Z,15.50
2018-09-29T12:58:03.600Z,15.60
2018-09-29T13:00:32.442Z,15.60
2018-09-29T13:03:01.019Z,15.70
2018-09-29T13:05:29.795Z,15.80
2018-09-29T13:07:58.470Z,15.90
2018-09-29T13:10:26.948Z,16.00
2018-09-29T13:12:55.554Z,16.00
2018-09-29T13:15:24.143Z,15.80
2018-09-29T13:17:52.542Z,15.80
2018-09-29T13:20:21.193Z,15.80
2018-09-29T13:22:50.029Z,15.80
2018-09-29T13:25:18.362Z,15.80
2018-09-29T13:27:46.977Z,15.80
2018-09-29T13:30:15.569Z,15.70
2018-09-29T13:32:44.207Z,15.70
2018-09-29T13:35:12.645Z,15.70
2018-09-29T13:37:41.296Z,15.60
2018-09-29T13:40:09.859Z,15.60
2018-09-29T13:42:44.857Z,15.60
2018-09-29T13:45:13.142Z,15.50
2018-09-29T13:47:41.606Z,15.50
2018-09-29T13:50:09.839Z,15.50
2018-09-29T13:52:38.899Z,15.40
2018-09-29T13:55:08.125Z,15.40
2018-09-29T13:57:37.212Z,15.30
2018-09-29T14:00:05.566Z,15.30
2018-09-29T14:02:34.015Z,15.30
2018-09-29T14:05:02.581Z,15.40
2018-09-29T14:07:31.153Z,15.40
2018-09-29T14:09:59.494Z,15.30
2018-09-29T14:12:27.807Z,15.30
2018-09-29T14:14:56.125Z,15.30
2018-09-29T14:17:24.563Z,15.40
2018-09-29T14:19:53.133Z,15.40
2018-09-29T14:22:21.526Z,15.40
2018-09-29T14:24:50.010Z,15.50
2018-09-29T14:27:18.455Z,15.50
2018-09-29T14:29:47.364Z,15.60
2018-09-29T14:32:15.624Z,15.60
2018-09-29T14:34:43.913Z,15.70
2018-09-29T14:37:12.530Z,15.70
2018-09-29T14:39:41.812Z,15.80
2018-09-29T14:42:10.475Z,15.80
2018-09-29T14:44:39.122Z,15.80
2018-09-29T14:47:07.464Z,15.80
2018-09-29T14:49:35.879Z,15.80
2018-09-29T14:52:04.230Z,15.80
2018-09-29T14:54:32.638Z,15.80
2018-09-29T14:57:01.008Z,15.80
2018-09-29T14:59:31.105Z,15.90
2018-09-29T15:01:59.489Z,15.90
2018-09-29T15:04:28.528Z,15.90
2018-09-29T15:06:56.920Z,15.90
2018-09-29T15:09:26.367Z,16.00
2018-09-29T15:11:55.227Z,16.00
2018-09-29T15:14:23.657Z,15.90
2018-09-29T15:16:52.004Z,15.90
2018-09-29T15:19:20.626Z,15.90
2018-09-29T15:21:49.267Z,15.90
2018-09-29T15:24:17.557Z,15.90
2018-09-29T15:26:46.197Z,15.80
2018-09-29T15:29:14.825Z,15.80
2018-09-29T15:31:43.338Z,15.70
2018-09-29T15:34:12.595Z,15.70
2018-09-29T15:36:41.335Z,15.70
2018-09-29T15:39:11.644Z,15.70
2018-09-29T15:41:40.345Z,15.60
2018-09-29T15:44:09.481Z,15.50
2018-09-29T15:46:39.617Z,15.40
2018-09-29T15:49:08.336Z,15.40
2018-09-29T15:51:37.772Z,15.50
2018-09-29T15:54:06.598Z,15.50
2018-09-29T15:56:36.226Z,15.50
2018-09-29T15:59:12.074Z,15.50
2018-09-29T16:01:40.959Z,15.60
2018-09-29T16:04:09.543Z,15.60
2018-09-29T16:09:19.267Z,15.60
2018-09-29T16:11:47.715Z,15.50
2018-09-29T16:14:16.336Z,15.50
2018-09-29T16:16:45.040Z,15.50
2018-09-29T16:19:13.619Z,15.40
2018-09-29T16:21:48.713Z,15.40
2018-09-29T16:24:17.258Z,15.40
2018-09-29T16:26:45.939Z,15.40
2018-09-29T16:29:15.362Z,15.40
2018-09-29T16:31:44.305Z,15.30
2018-09-29T16:34:12.939Z,15.30
2018-09-29T16:36:41.920Z,15.30
2018-09-29T16:39:12.635Z,15.30
2018-09-29T16:41:42.047Z,15.20
2018-09-29T16:44:11.286Z,15.30
2018-09-29T16:46:41.451Z,15.20
2018-09-29T16:49:10.034Z,15.20
2018-09-29T16:51:38.855Z,15.20
2018-09-29T16:54:07.586Z,15.20
2018-09-29T16:56:37.046Z,15.20
2018-09-29T16:59:06.088Z,15.20
2018-09-29T17:01:37.637Z,15.20
2018-09-29T17:04:13.597Z,15.10
2018-09-29T17:06:42.219Z,15.10
2018-09-29T17:09:12.171Z,15.10
2018-09-29T17:11:42.466Z,15.10
2018-09-29T17:14:12.657Z,15.10
2018-09-29T17:16:41.818Z,15.00
2018-09-29T17:19:11.484Z,15.00
2018-09-29T17:21:40.721Z,15.00
2018-09-29T17:24:15.153Z,15.00
2018-09-29T17:26:44.154Z,14.90
2018-09-29T17:29:13.313Z,14.90
2018-09-29T17:31:42.305Z,14.90
2018-09-29T17:34:12.232Z,14.90
2018-09-29T17:36:41.344Z,14.90
2018-09-29T17:39:11.660Z,14.90
2018-09-29T17:41:41.953Z,14.90
2018-09-29T17:44:11.114Z,14.90
2018-09-29T17:46:41.201Z,14.90
2018-09-29T17:49:10.433Z,14.90
2018-09-29T17:51:42.462Z,14.90
2018-09-29T17:54:12.827Z,14.90
2018-09-29T17:56:43.309Z,14.90
2018-09-29T17:59:12.239Z,14.80
2018-09-29T18:01:41.127Z,14.80
2018-09-29T18:04:10.309Z,14.80
2018-09-29T18:06:39.120Z,14.80
2018-09-29T18:09:10.806Z,14.90
2018-09-29T18:11:39.584Z,14.80
2018-09-29T18:14:08.396Z,14.80
2018-09-29T18:16:36.930Z,14.80
2018-09-29T18:19:05.754Z,14.80
2018-09-29T18:21:34.601Z,14.80
2018-09-29T18:24:03.385Z,14.80
2018-09-29T18:26:32.016Z,14.80
2018-09-29T18:29:00.624Z,14.80
2018-09-29T18:31:29.209Z,14.80
2018-09-29T18:33:58.145Z,14.80
2018-09-29T18:36:26.905Z,14.80
2018-09-29T18:38:56.820Z,14.80
2018-09-29T18:41:25.811Z,14.80
2018-09-29T18:43:54.346Z,14.80
2018-09-29T18:46:23.141Z,14.80
2018-09-29T18:48:52.247Z,14.80
2018-09-29T18:51:21.025Z,14.70
2018-09-29T18:53:49.765Z,14.70
2018-09-29T18:56:19.194Z,14.70
2018-09-29T18:58:47.569Z,14.70
2018-09-29T19:01:17.041Z,14.70
2018-09-29T19:06:23.724Z,14.60
2018-09-29T19:08:52.410Z,14.60
2018-09-29T19:11:20.902Z,14.60
2018-09-29T19:13:50.146Z,14.60
2018-09-29T19:16:21.147Z,14.60
2018-09-29T19:18:50.304Z,14.60
2018-09-29T19:21:19.066Z,14.60
2018-09-29T19:23:48.926Z,14.60
2018-09-29T19:26:18.012Z,14.60
2018-09-29T19:28:46.725Z,14.60
2018-09-29T19:31:15.429Z,14.60
2018-09-29T19:33:46.748Z,14.60
2018-09-29T19:36:16.251Z,14.60
2018-09-29T19:38:45.000Z,14.60
2018-09-29T19:41:14.214Z,14.50
2018-09-29T19:43:42.866Z,14.50
2018-09-29T19:46:13.071Z,14.50
2018-09-29T19:48:41.764Z,14.50
2018-09-29T19:51:10.654Z,14.50
2018-09-29T19:53:39.676Z,14.50
2018-09-29T19:56:08.563Z,14.50
2018-09-29T19:58:37.881Z,14.50
2018-09-29T20:01:07.164Z,14.50
2018-09-29T20:03:35.976Z,14.50
2018-09-29T20:06:05.025Z,14.50
2018-09-29T20:08:35.592Z,14.50
2018-09-29T20:11:04.013Z,14.40
2018-09-29T20:13:33.495Z,14.40
2018-09-29T20:16:02.183Z,14.40
2018-09-29T20:18:33.704Z,14.40
2018-09-29T20:21:02.710Z,14.40
2018-09-29T20:23:31.345Z,14.40
2018-09-29T20:26:00.930Z,14.30
2018-09-29T20:28:29.710Z,14.30
2018-09-29T20:31:14.734Z,14.30
2018-09-29T20:33:43.362Z,14.30
2018-09-29T20:36:12.090Z,14.30
2018-09-29T20:38:41.158Z,14.30
2018-09-29T20:41:09.815Z,14.30
2018-09-29T20:43:38.568Z,14.30
2018-09-29T20:46:08.194Z,14.20
2018-09-29T20:48:38.414Z,14.30
2018-09-29T20:51:07.025Z,14.20
2018-09-29T20:53:36.477Z,14.30
2018-09-29T20:56:05.239Z,14.30
2018-09-29T20:58:34.848Z,14.30
2018-09-29T21:01:04.120Z,14.20
2018-09-29T21:03:32.962Z,14.20
2018-09-29T21:06:02.282Z,14.20
2018-09-29T21:08:31.658Z,14.20
2018-09-29T21:11:01.360Z,14.30
2018-09-29T21:13:30.075Z,14.30
2018-09-29T21:15:58.562Z,14.30
2018-09-29T21:18:27.382Z,14.30
2018-09-29T21:20:55.866Z,14.20
2018-09-29T21:23:24.647Z,14.20
2018-09-29T21:25:53.272Z,14.20
2018-09-29T21:28:21.974Z,14.20
2018-09-29T21:30:50.398Z,14.20
2018-09-29T21:33:18.938Z,14.20
2018-09-29T21:35:47.330Z,14.10
2018-09-29T21:38:16.153Z,14.10
2018-09-29T21:40:44.656Z,14.10
2018-09-29T21:43:13.176Z,14.10
2018-09-29T21:45:41.828Z,14.00
2018-09-29T21:48:11.510Z,14.00
2018-09-29T21:50:40.304Z,14.00
2018-09-29T21:53:08.673Z,14.00
2018-09-29T21:55:37.172Z,14.00
2018-09-29T21:58:05.781Z,14.00
2018-09-29T22:00:39.503Z,14.00
2018-09-29T22:03:08.140Z,14.00
2018-09-29T22:05:38.026Z,14.00
2018-09-29T22:08:07.265Z,14.00
2018-09-29T22:10:35.888Z,14.10
2018-09-29T22:13:04.801Z,14.00
2018-09-29T22:15:33.657Z,14.00
2018-09-29T22:18:03.326Z,14.00
2018-09-29T22:20:32.184Z,14.00
2018-09-29T22:23:01.058Z,14.00
2018-09-29T22:25:29.681Z,14.00
2018-09-29T22:27:58.175Z,14.00
2018-09-29T22:30:26.724Z,14.00
2018-09-29T22:32:55.028Z,14.00
2018-09-29T22:35:23.749Z,14.00
2018-09-29T22:37:52.151Z,14.00
2018-09-29T22:40:20.704Z,14.00
2018-09-29T22:42:49.286Z,13.90
2018-09-29T22:45:18.203Z,13.90
2018-09-29T22:47:46.576Z,13.90
2018-09-29T22:50:14.995Z,13.90
2018-09-29T22:52:43.395Z,13.80
2018-09-29T22:55:11.779Z,13.80
2018-09-29T22:57:41.896Z,13.80
2018-09-29T23:00:10.523Z,13.80
2018-09-29T23:02:39.102Z,13.80
2018-09-29T23:05:07.586Z,13.80
2018-09-29T23:07:35.870Z,13.80
2018-09-29T23:10:04.209Z,13.70
2018-09-29T23:12:32.609Z,13.70
2018-09-29T23:15:01.041Z,13.70
2018-09-29T23:17:29.346Z,13.70
2018-09-29T23:19:57.699Z,13.60
2018-09-29T23:22:26.319Z,13.60
2018-09-29T23:24:54.651Z,13.60
2018-09-29T23:27:22.916Z,13.50
2018-09-29T23:29:51.331Z,13.50
2018-09-29T23:32:19.563Z,13.50
2018-09-29T23:34:47.858Z,13.40
2018-09-29T23:37:16.167Z,13.40
2018-09-29T23:39:44.415Z,13.40
2018-09-29T23:42:12.711Z,13.40
2018-09-29T23:44:41.053Z,13.40
2018-09-29T23:47:09.564Z,13.30
2018-09-29T23:49:37.866Z,13.30
2018-09-29T23:52:06.240Z,13.30
2018-09-29T23:54:34.556Z,13.30
2018-09-29T23:57:02.813Z,13.30
2018-09-29T23:59:31.154Z,13.30
